Time;durP1;ratioP1;P1;durP2;ratioP2;P2;SDS_P1;SDS_P2;PMS_P1;PMS_P2;Temp;Humidity;BMP_temperature;BMP_pressure;BME280_temperature;BME280_humidity;BME280_pressure;Samples;Min_cycle;Max_cycle;Signal;HPM_P1;HPM_P2
2023/03/06 00:00:24;;;;;;;42.00;14.07;;;8.90;51.40;;;;;;7543528;23;20386;-71
2023/03/06 00:03:26;;;;;;;45.80;15.77;;;8.80;51.40;;;;;;7527771;23;20117;-72
2023/03/06 00:06:27;;;;;;;39.63;14.02;;;8.80;51.40;;;;;;7551599;23;20013;-72
2023/03/06 00:09:28;;;;;;;45.67;14.07;;;8.80;51.40;;;;;;7551298;23;20011;-71
2023/03/06 00:12:30;;;;;;;40.25;14.20;;;8.80;51.40;;;;;;7529134;23;20026;-72
2023/03/06 00:15:31;;;;;;;43.67;15.25;;;8.80;51.50;;;;;;7529299;23;20014;-71
2023/03/06 00:18:32;;;;;;;47.13;14.02;;;8.80;51.50;;;;;;7528790;23;20007;-72
2023/03/06 00:21:33;;;;;;;45.35;13.35;;;8.80;51.60;;;;;;7529404;23;20093;-71
2023/03/06 00:24:34;;;;;;;37.63;14.32;;;8.80;51.60;;;;;;7531350;23;20078;-72
2023/03/06 00:27:35;;;;;;;43.83;14.95;;;8.80;51.70;;;;;;7554518;23;20011;-72
2023/03/06 00:30:37;;;;;;;42.20;13.73;;;8.70;51.70;;;;;;7534276;23;20078;-72
2023/03/06 00:33:38;;;;;;;43.28;14.50;;;8.70;51.80;;;;;;7529739;23;20441;-71
2023/03/06 00:36:39;;;;;;;43.10;14.85;;;8.70;51.80;;;;;;7527077;23;20066;-72
2023/03/06 00:39:42;;;;;;;33.03;13.43;;;8.70;51.90;;;;;;7551572;23;20022;-73
2023/03/06 00:42:44;;;;;;;43.35;13.70;;;8.70;52.00;;;;;;7531097;23;20014;-71
2023/03/06 00:45:45;;;;;;;42.38;14.20;;;8.70;52.00;;;;;;7529101;23;20139;-70
2023/03/06 00:48:46;;;;;;;49.78;14.98;;;8.60;51.90;;;;;;7526554;23;20409;-71
2023/03/06 00:51:47;;;;;;;39.40;13.35;;;8.60;51.90;;;;;;7526874;23;20042;-72
2023/03/06 00:54:48;;;;;;;44.53;15.38;;;8.60;51.90;;;;;;7526672;23;20018;-72
2023/03/06 00:57:49;;;;;;;33.95;13.48;;;8.50;52.00;;;;;;7550147;23;20045;-72
2023/03/06 01:00:50;;;;;;;43.65;14.82;;;8.50;52.00;;;;;;7550862;23;20022;-72
2023/03/06 01:03:51;;;;;;;36.35;14.02;;;8.50;52.20;;;;;;7526488;23;20034;-70
2023/03/06 01:06:54;;;;;;;44.95;16.67;;;8.30;52.10;;;;;;7526854;23;20157;-73
2023/03/06 01:09:54;;;;;;;40.70;15.35;;;8.30;52.60;;;;;;7527099;23;20137;-71
2023/03/06 01:12:56;;;;;;;45.97;14.02;;;8.30;52.80;;;;;;7529051;23;20010;-71
2023/03/06 01:16:11;;;;;;;34.85;14.10;;;8.20;52.80;;;;;;7528654;23;20014;-73
2023/03/06 01:19:14;;;;;;;38.53;13.18;;;8.20;53.00;;;;;;7550366;23;20448;-73
2023/03/06 01:22:15;;;;;;;46.50;14.75;;;8.10;53.10;;;;;;7528079;23;20014;-72
2023/03/06 01:25:16;;;;;;;36.33;13.30;;;8.10;53.10;;;;;;7528555;23;20425;-70
2023/03/06 01:28:17;;;;;;;29.05;12.18;;;8.10;53.20;;;;;;7528020;23;20063;-72
2023/03/06 01:31:18;;;;;;;33.47;12.35;;;8.10;53.30;;;;;;7528170;23;20011;-72
2023/03/06 01:34:19;;;;;;;39.42;13.88;;;8.10;53.50;;;;;;7526519;23;20011;-72
2023/03/06 01:37:20;;;;;;;41.67;14.07;;;8.00;53.50;;;;;;7550366;23;20018;-71
2023/03/06 01:40:21;;;;;;;35.92;12.90;;;8.00;53.70;;;;;;7528407;23;20010;-71
2023/03/06 01:43:30;;;;;;;44.55;14.63;;;7.90;53.80;;;;;;7550945;23;20021;-73
2023/03/06 01:46:41;;;;;;;38.35;13.65;;;7.90;53.90;;;;;;7527148;23;20433;-73
2023/03/06 01:49:42;;;;;;;48.17;14.43;;;7.80;53.90;;;;;;7526763;23;20014;-72
2023/03/06 01:52:49;;;;;;;37.95;13.98;;;7.80;54.00;;;;;;7528304;23;20015;-72
2023/03/06 01:55:51;;;;;;;50.17;15.82;;;7.80;54.20;;;;;;7550075;23;20015;-71
2023/03/06 01:58:52;;;;;;;43.72;14.02;;;7.70;54.20;;;;;;7549517;23;20090;-71
2023/03/06 02:01:55;;;;;;;36.15;13.73;;;7.70;54.30;;;;;;7526674;23;20006;-70
2023/03/06 02:04:56;;;;;;;36.47;12.25;;;7.60;54.30;;;;;;7527782;23;20013;-71
2023/03/06 02:07:58;;;;;;;32.83;13.35;;;7.60;54.30;;;;;;7525766;23;20078;-72
2023/03/06 02:11:05;;;;;;;35.28;13.20;;;7.60;54.30;;;;;;7527916;23;20038;-72
2023/03/06 02:14:06;;;;;;;40.95;15.70;;;7.60;54.40;;;;;;7529509;23;20011;-72
2023/03/06 02:17:09;;;;;;;40.72;15.57;;;7.60;54.50;;;;;;7564863;23;20071;-72
2023/03/06 02:20:52;;;;;;;38.80;15.50;;;7.60;54.60;;;;;;7533730;23;20035;-71
2023/03/06 02:24:03;;;;;;;55.00;18.33;;;7.60;54.60;;;;;;7526467;23;20025;-72
2023/03/06 02:27:06;;;;;;;51.72;18.65;;;7.60;54.70;;;;;;7525779;23;20097;-72
2023/03/06 02:30:08;;;;;;;44.45;16.42;;;7.60;54.80;;;;;;7525582;23;20018;-71
2023/03/06 02:33:15;;;;;;;54.55;19.15;;;7.60;54.80;;;;;;7526032;23;20106;-71
2023/03/06 02:36:16;;;;;;;52.67;20.00;;;7.60;54.90;;;;;;7549710;23;20034;-72
2023/03/06 02:39:26;;;;;;;69.28;22.30;;;7.50;55.00;;;;;;7525975;23;20311;-71
2023/03/06 02:42:28;;;;;;;64.13;23.05;;;7.60;55.10;;;;;;7549912;23;20093;-71
2023/03/06 02:45:44;;;;;;;60.65;19.88;;;7.50;55.30;;;;;;7528751;23;20052;-72
2023/03/06 02:48:45;;;;;;;55.92;18.90;;;7.50;55.40;;;;;;7533408;23;20015;-72
2023/03/06 02:51:45;;;;;;;60.08;21.60;;;7.50;55.50;;;;;;7545092;23;20475;-71
2023/03/06 02:54:47;;;;;;;67.82;22.77;;;7.50;55.50;;;;;;7533315;23;20142;-71
2023/03/06 02:57:49;;;;;;;46.42;17.42;;;7.50;55.60;;;;;;7525336;23;20110;-73
2023/03/06 03:00:50;;;;;;;46.25;17.02;;;7.50;55.60;;;;;;7527293;23;20451;-73
2023/03/06 03:03:53;;;;;;;44.88;16.42;;;7.40;55.60;;;;;;7525249;23;20062;-72
2023/03/06 03:06:55;;;;;;;44.95;15.95;;;7.40;55.70;;;;;;7526896;23;20043;-71
2023/03/06 03:09:56;;;;;;;36.20;14.73;;;7.40;55.70;;;;;;7525020;23;20037;-72
2023/03/06 03:12:58;;;;;;;42.65;15.43;;;7.40;55.70;;;;;;7525475;23;20039;-72
2023/03/06 03:16:00;;;;;;;46.60;14.75;;;7.40;55.70;;;;;;7501103;23;20026;-73
2023/03/06 03:19:01;;;;;;;43.55;15.55;;;7.40;55.30;;;;;;7524682;23;20011;-72
2023/03/06 03:22:02;;;;;;;37.20;13.02;;;7.40;55.80;;;;;;7525283;23;20090;-72
2023/03/06 03:25:04;;;;;;;35.20;14.65;;;7.30;55.70;;;;;;7501202;23;20039;-72
2023/03/06 03:28:05;;;;;;;38.20;13.45;;;7.30;55.70;;;;;;7526991;23;20089;-71
2023/03/06 03:31:08;;;;;;;39.67;14.73;;;7.30;55.70;;;;;;7527448;23;20066;-71
2023/03/06 03:34:10;;;;;;;50.05;13.75;;;7.30;55.70;;;;;;7527022;23;20018;-71
2023/03/06 03:37:13;;;;;;;61.25;15.20;;;7.30;55.70;;;;;;7527201;23;20026;-72
2023/03/06 03:40:16;;;;;;;37.35;13.95;;;7.30;55.70;;;;;;7527195;23;20456;-72
2023/03/06 03:43:17;;;;;;;38.63;12.98;;;7.40;55.80;;;;;;7527683;23;20065;-72
2023/03/06 03:46:20;;;;;;;48.83;14.07;;;7.30;55.70;;;;;;7527976;23;20015;-71
2023/03/06 03:49:22;;;;;;;33.38;12.88;;;7.40;55.60;;;;;;7504268;23;20451;-72
2023/03/06 03:52:24;;;;;;;45.10;14.32;;;7.40;55.50;;;;;;7503512;23;20011;-74
2023/03/06 03:55:25;;;;;;;39.58;12.38;;;7.30;55.40;;;;;;7527646;23;20010;-71
2023/03/06 03:58:26;;;;;;;38.90;14.18;;;7.30;55.30;;;;;;7526826;23;20424;-71
2023/03/06 04:01:28;;;;;;;39.10;14.90;;;7.30;55.30;;;;;;7527618;23;20011;-71
2023/03/06 04:04:29;;;;;;;39.28;13.32;;;7.30;55.20;;;;;;7527540;23;20102;-70
2023/03/06 04:07:30;;;;;;;30.70;13.18;;;7.20;55.10;;;;;;7528353;23;20023;-70
2023/03/06 04:10:33;;;;;;;38.80;12.00;;;7.20;55.20;;;;;;7528294;23;20017;-70
2023/03/06 04:13:35;;;;;;;31.75;13.30;;;7.10;55.20;;;;;;7504765;23;20046;-71
2023/03/06 04:16:38;;;;;;;35.83;12.98;;;7.10;55.20;;;;;;7504228;23;20026;-71
2023/03/06 04:19:40;;;;;;;37.97;13.60;;;7.10;55.30;;;;;;7527007;23;20390;-71
2023/03/06 04:22:41;;;;;;;29.42;13.40;;;7.00;55.30;;;;;;7526627;23;20017;-71
2023/03/06 04:25:44;;;;;;;29.80;12.18;;;7.10;55.40;;;;;;7526886;23;20019;-72
2023/03/06 04:28:46;;;;;;;32.90;12.68;;;7.10;55.40;;;;;;7526582;23;20019;-70
2023/03/06 04:31:48;;;;;;;44.85;14.85;;;7.10;55.40;;;;;;7526633;23;20011;-71
2023/03/06 04:34:49;;;;;;;43.67;13.10;;;7.10;55.40;;;;;;7526703;23;20437;-71
2023/03/06 04:37:50;;;;;;;42.65;15.00;;;7.10;55.40;;;;;;7503636;23;20441;-71
2023/03/06 04:40:54;;;;;;;44.70;14.73;;;7.10;55.50;;;;;;7526982;23;20340;-72
2023/03/06 04:43:55;;;;;;;39.65;14.68;;;7.20;55.60;;;;;;7528503;23;20523;-71
2023/03/06 04:46:56;;;;;;;37.60;12.57;;;7.10;55.50;;;;;;7503030;23;20121;-73
2023/03/06 04:49:57;;;;;;;33.08;13.25;;;7.20;55.50;;;;;;7528447;23;20034;-71
2023/03/06 04:53:00;;;;;;;40.58;14.30;;;7.10;55.50;;;;;;7527384;23;20451;-73
2023/03/06 04:56:01;;;;;;;51.85;14.63;;;7.10;55.60;;;;;;7534903;23;20063;-72
2023/03/06 04:59:03;;;;;;;37.00;15.05;;;7.10;55.60;;;;;;7543320;23;20010;-72
2023/03/06 05:02:04;;;;;;;39.67;14.20;;;7.10;55.70;;;;;;7557950;23;20010;-72
2023/03/06 05:05:06;;;;;;;43.80;14.23;;;7.10;55.70;;;;;;7552371;23;20027;-72
2023/03/06 05:08:09;;;;;;;46.38;15.75;;;7.20;55.70;;;;;;7530514;23;20006;-72
2023/03/06 05:11:10;;;;;;;41.13;14.15;;;7.20;55.70;;;;;;7552461;23;20007;-72
2023/03/06 05:14:11;;;;;;;43.38;14.35;;;7.20;55.90;;;;;;7556765;23;20026;-72
2023/03/06 05:17:12;;;;;;;47.40;14.90;;;7.10;56.10;;;;;;7550320;23;20015;-71
2023/03/06 05:20:15;;;;;;;38.17;15.27;;;7.10;56.20;;;;;;7528164;23;20015;-73
2023/03/06 05:23:16;;;;;;;71.60;16.08;;;7.00;56.30;;;;;;7550171;23;20022;-72
2023/03/06 05:26:17;;;;;;;46.58;14.00;;;6.90;56.30;;;;;;7550254;23;20081;-72
2023/03/06 05:29:18;;;;;;;34.55;13.43;;;6.90;56.50;;;;;;7526580;23;20103;-71
2023/03/06 05:32:19;;;;;;;35.85;14.75;;;6.90;56.50;;;;;;7550687;23;20065;-73
2023/03/06 05:35:22;;;;;;;46.85;15.10;;;6.80;56.50;;;;;;7527921;23;20093;-70
2023/03/06 05:38:23;;;;;;;37.47;13.40;;;6.80;56.50;;;;;;7549733;23;20314;-72
2023/03/06 05:41:24;;;;;;;52.30;15.18;;;6.80;56.50;;;;;;7527886;23;20006;-72
2023/03/06 05:44:30;;;;;;;39.90;12.70;;;6.70;56.50;;;;;;7549890;23;20077;-73
2023/03/06 05:47:32;;;;;;;46.08;15.65;;;6.80;56.60;;;;;;7527402;23;20014;-71
2023/03/06 05:50:33;;;;;;;36.75;14.63;;;6.80;56.50;;;;;;7527567;23;20025;-73
2023/03/06 05:53:34;;;;;;;57.00;15.82;;;7.00;56.60;;;;;;7527802;23;20492;-72
2023/03/06 05:56:35;;;;;;;50.58;16.88;;;6.90;56.60;;;;;;7527632;23;20035;-72
2023/03/06 05:59:36;;;;;;;44.70;16.17;;;6.90;56.50;;;;;;7527405;23;20048;-71
2023/03/06 06:02:37;;;;;;;42.67;13.93;;;6.90;56.50;;;;;;7501953;23;20394;-72
2023/03/06 06:05:38;;;;;;;46.38;15.32;;;6.90;56.60;;;;;;7501895;23;20070;-71
2023/03/06 06:08:41;;;;;;;39.90;14.63;;;6.80;56.70;;;;;;7527616;23;20046;-72
2023/03/06 06:11:42;;;;;;;37.67;15.07;;;6.80;56.80;;;;;;7528142;23;20018;-72
2023/03/06 06:14:43;;;;;;;45.65;15.00;;;6.70;56.90;;;;;;7526185;23;20023;-72
2023/03/06 06:17:44;;;;;;;37.22;12.43;;;6.70;57.00;;;;;;7524657;23;20403;-71
2023/03/06 06:20:45;;;;;;;44.95;13.13;;;6.70;57.10;;;;;;7527349;23;20007;-72
2023/03/06 06:23:46;;;;;;;48.58;16.48;;;6.70;57.20;;;;;;7501259;23;20098;-72
2023/03/06 06:26:53;;;;;;;49.40;15.68;;;6.60;57.20;;;;;;7526912;23;20014;-73
2023/03/06 06:29:53;;;;;;;46.42;14.73;;;6.60;57.40;;;;;;7526810;23;20032;-72
2023/03/06 06:32:54;;;;;;;48.00;15.00;;;6.60;57.50;;;;;;7526983;23;20010;-72
2023/03/06 06:35:55;;;;;;;39.05;15.18;;;6.50;57.60;;;;;;7525370;23;20408;-72
2023/03/06 06:38:57;;;;;;;45.65;14.80;;;6.50;57.80;;;;;;7526710;23;20007;-72
2023/03/06 06:41:58;;;;;;;39.17;14.85;;;6.50;57.80;;;;;;7526400;23;20037;-72
2023/03/06 06:44:59;;;;;;;51.25;14.93;;;6.50;57.90;;;;;;7527207;23;20007;-72
2023/03/06 06:48:00;;;;;;;51.38;16.92;;;6.50;57.90;;;;;;7501293;23;20017;-72
2023/03/06 06:51:01;;;;;;;44.67;13.98;;;6.50;57.90;;;;;;7501913;23;20019;-73
2023/03/06 06:54:02;;;;;;;34.25;12.80;;;6.50;58.60;;;;;;7525345;23;20106;-73
2023/03/06 06:57:03;;;;;;;27.48;12.95;;;6.50;58.20;;;;;;7527184;23;20417;-75
2023/03/06 07:00:05;;;;;;;40.95;14.02;;;6.50;58.20;;;;;;7528199;23;20011;-74
2023/03/06 07:03:07;;;;;;;49.20;14.98;;;6.60;58.30;;;;;;7529699;23;20034;-73
2023/03/06 07:06:08;;;;;;;48.05;15.98;;;6.60;58.90;;;;;;7530458;23;20025;-74
2023/03/06 07:09:10;;;;;;;47.30;15.10;;;6.60;58.30;;;;;;7529638;23;20082;-72
2023/03/06 07:12:11;;;;;;;50.60;16.10;;;6.60;58.20;;;;;;7529814;23;20094;-74
2023/03/06 07:15:16;;;;;;;44.72;15.15;;;6.60;58.10;;;;;;7530757;23;20053;-73
2023/03/06 07:18:17;;;;;;;41.42;15.35;;;6.70;58.30;;;;;;7528083;23;20011;-72
2023/03/06 07:21:18;;;;;;;39.08;15.05;;;6.70;58.20;;;;;;7530733;23;20033;-72
2023/03/06 07:24:19;;;;;;;42.08;16.17;;;6.70;58.20;;;;;;7528604;23;20011;-74
2023/03/06 07:27:21;;;;;;;38.50;15.07;;;6.80;58.10;;;;;;7528939;23;20067;-72
2023/03/06 07:30:23;;;;;;;42.97;14.65;;;6.80;58.00;;;;;;7508944;23;20086;-73
2023/03/06 07:33:24;;;;;;;48.05;18.20;;;6.80;58.10;;;;;;7550707;23;20011;-71
2023/03/06 07:36:25;;;;;;;48.55;17.50;;;6.90;58.20;;;;;;7533388;23;20070;-73
2023/03/06 07:39:28;;;;;;;40.63;13.70;;;6.90;58.10;;;;;;7504930;23;20007;-72
2023/03/06 07:42:29;;;;;;;45.47;15.00;;;6.90;58.00;;;;;;7503801;23;20337;-72
2023/03/06 07:45:35;;;;;;;44.92;16.58;;;7.00;58.00;;;;;;7527778;23;20485;-71
2023/03/06 07:48:36;;;;;;;36.95;15.02;;;7.00;57.90;;;;;;7503344;23;20456;-73
2023/03/06 07:51:37;;;;;;;48.35;17.23;;;7.00;57.90;;;;;;7529504;23;20018;-71
2023/03/06 07:54:38;;;;;;;51.03;18.42;;;7.10;57.90;;;;;;7530288;23;20011;-73
2023/03/06 07:57:40;;;;;;;48.80;17.58;;;7.10;57.90;;;;;;7528747;23;20033;-73
2023/03/06 08:00:41;;;;;;;63.60;18.88;;;7.20;57.80;;;;;;7526515;23;20015;-71
2023/03/06 08:03:42;;;;;;;51.53;17.77;;;7.20;57.80;;;;;;7528539;23;20023;-73
2023/03/06 08:06:43;;;;;;;46.70;18.50;;;7.30;57.70;;;;;;7529928;23;20015;-74
2023/03/06 08:09:44;;;;;;;53.35;18.92;;;7.50;57.60;;;;;;7530113;23;20378;-73
2023/03/06 08:12:45;;;;;;;45.97;16.85;;;7.60;57.40;;;;;;7529570;23;20319;-71
2023/03/06 08:15:48;;;;;;;44.85;17.80;;;7.70;57.30;;;;;;7552362;23;20017;-73
2023/03/06 08:18:49;;;;;;;60.60;18.52;;;7.90;57.10;;;;;;7530222;23;20058;-72
2023/03/06 08:21:50;;;;;;;53.90;17.88;;;8.00;56.80;;;;;;7530793;23;20100;-73
2023/03/06 08:24:54;;;;;;;54.55;18.13;;;8.00;56.60;;;;;;7530076;23;20105;-72
2023/03/06 08:27:55;;;;;;;57.65;20.13;;;8.10;56.50;;;;;;7529965;23;20010;-74
2023/03/06 08:30:57;;;;;;;50.80;19.13;;;8.10;56.40;;;;;;7528876;23;20011;-72
2023/03/06 08:34:01;;;;;;;51.60;18.73;;;8.20;56.20;;;;;;7527286;23;20010;-73
2023/03/06 08:37:02;;;;;;;44.25;18.52;;;8.30;56.10;;;;;;7527101;23;20108;-72
2023/03/06 08:40:04;;;;;;;53.03;17.25;;;8.40;55.90;;;;;;7528733;23;20007;-72
2023/03/06 08:43:08;;;;;;;55.67;20.40;;;8.50;55.80;;;;;;7526905;23;20011;-71
2023/03/06 08:46:10;;;;;;;48.97;19.13;;;8.70;55.70;;;;;;7551099;23;20018;-73
2023/03/06 08:49:12;;;;;;;52.03;18.80;;;8.80;55.40;;;;;;7551362;23;20126;-72
2023/03/06 08:52:15;;;;;;;50.72;18.65;;;8.80;55.00;;;;;;7550941;23;20006;-72
2023/03/06 08:55:16;;;;;;;49.28;18.13;;;9.00;54.90;;;;;;7526816;23;20038;-72
2023/03/06 08:58:17;;;;;;;74.40;18.98;;;9.10;54.60;;;;;;7528716;23;20011;-71
2023/03/06 09:01:21;;;;;;;53.63;17.65;;;9.30;54.50;;;;;;7528986;23;20021;-72
2023/03/06 09:04:22;;;;;;;59.20;18.85;;;9.40;54.30;;;;;;7528912;23;20007;-72
2023/03/06 09:07:23;;;;;;;63.40;20.80;;;9.60;54.20;;;;;;7528479;23;20026;-75
2023/03/06 09:10:26;;;;;;;54.88;19.95;;;9.80;54.00;;;;;;7528974;23;20290;-72
2023/03/06 09:13:27;;;;;;;48.72;19.30;;;9.80;53.80;;;;;;7526610;23;20344;-73
2023/03/06 09:16:28;;;;;;;57.45;20.63;;;10.00;53.60;;;;;;7528788;23;20066;-73
2023/03/06 09:19:29;;;;;;;55.67;19.23;;;10.10;53.20;;;;;;7502470;23;20033;-73
2023/03/06 09:22:30;;;;;;;54.17;19.25;;;10.20;52.90;;;;;;7525956;23;20092;-71
2023/03/06 09:25:31;;;;;;;56.30;20.17;;;10.30;52.70;;;;;;7528173;23;20155;-72
2023/03/06 09:28:35;;;;;;;51.10;19.65;;;10.40;52.50;;;;;;7526166;23;20015;-73
2023/03/06 09:31:36;;;;;;;61.95;19.20;;;10.40;52.10;;;;;;7526239;23;20452;-72
2023/03/06 09:34:37;;;;;;;60.17;21.10;;;10.50;52.00;;;;;;7528042;23;20003;-72
2023/03/06 09:37:38;;;;;;;51.63;18.85;;;10.60;52.00;;;;;;7525825;23;20018;-72
2023/03/06 09:41:01;;;;;;;55.95;19.38;;;10.70;51.70;;;;;;7528075;23;20050;-72
2023/03/06 09:44:13;;;;;;;52.38;16.50;;;10.80;51.60;;;;;;7528505;23;20007;-72
2023/03/06 09:47:42;;;;;;;55.22;18.92;;;10.90;51.30;;;;;;7528187;23;20047;-73
2023/03/06 09:51:03;;;;;;;56.75;21.02;;;11.00;51.10;;;;;;7534976;23;20437;-73
2023/03/06 09:54:12;;;;;;;54.78;20.60;;;11.10;50.90;;;;;;7547415;23;20049;-73
2023/03/06 09:57:30;;;;;;;52.92;18.45;;;11.20;50.80;;;;;;6315764;28;20356;-73
2023/03/06 10:00:44;;;;;;;51.53;20.75;;;11.20;50.50;;;;;;6314046;28;20024;-72
2023/03/06 10:03:52;;;;;;;58.30;18.48;;;11.30;50.40;;;;;;6314630;28;20484;-72
2023/03/06 10:07:00;;;;;;;43.80;17.15;;;11.40;50.10;;;;;;6314849;28;20031;-73
2023/03/06 10:10:05;;;;;;;53.92;16.95;;;11.40;50.00;;;;;;6314564;28;20035;-71
2023/03/06 10:13:39;;;;;;;42.28;15.90;;;11.50;49.90;;;;;;6314729;28;20844;-75
2023/03/06 10:16:40;;;;;;;42.92;15.65;;;11.60;49.70;;;;;;6313063;28;20090;-72
2023/03/06 10:19:41;;;;;;;49.40;16.33;;;11.70;49.50;;;;;;6316217;28;20036;-72
2023/03/06 10:22:53;;;;;;;48.47;17.92;;;11.70;49.00;;;;;;6326834;28;20174;-74
2023/03/06 10:26:07;;;;;;;43.05;15.40;;;11.80;48.70;;;;;;6323398;28;20037;-72
2023/03/06 10:29:11;;;;;;;45.25;16.20;;;11.80;48.60;;;;;;6314897;28;20043;-73
2023/03/06 10:32:38;;;;;;;45.70;15.82;;;11.80;48.30;;;;;;6313703;28;20028;-73
2023/03/06 10:35:43;;;;;;;46.13;17.08;;;11.90;48.00;;;;;;6313193;28;20488;-73
2023/03/06 10:38:47;;;;;;;50.92;16.52;;;12.00;47.60;;;;;;6312566;28;20024;-73
2023/03/06 10:41:48;;;;;;;36.17;14.10;;;12.20;47.10;;;;;;6314292;28;20025;-72
2023/03/06 10:45:10;;;;;;;44.78;14.30;;;12.50;47.00;;;;;;6312805;28;20115;-74
2023/03/06 10:48:16;;;;;;;47.22;16.90;;;12.80;46.20;;;;;;6285211;28;20032;-72
2023/03/06 10:51:20;;;;;;;50.78;16.55;;;13.10;45.70;;;;;;6287725;28;20037;-72
2023/03/06 10:54:21;;;;;;;51.45;15.55;;;13.30;45.30;;;;;;6289344;28;20040;-73
2023/03/06 10:57:27;;;;;;;43.13;15.45;;;13.50;44.90;;;;;;6288261;28;20020;-72
2023/03/06 11:00:37;;;;;;;41.92;15.50;;;13.80;44.60;;;;;;6286287;28;20029;-73
2023/03/06 11:03:38;;;;;;;42.75;15.00;;;13.70;43.80;;;;;;6294737;28;20032;-72
2023/03/06 11:06:39;;;;;;;40.40;14.27;;;14.10;43.80;;;;;;6307629;28;20028;-72
2023/03/06 11:09:58;;;;;;;43.38;14.40;;;14.30;43.30;;;;;;6294452;28;20103;-72
2023/03/06 11:13:06;;;;;;;39.92;13.32;;;14.50;42.70;;;;;;6294815;28;20052;-73
2023/03/06 11:16:31;;;;;;;40.08;14.95;;;14.80;42.70;;;;;;6277367;28;20167;-72
2023/03/06 11:19:32;;;;;;;36.55;13.60;;;15.10;41.80;;;;;;6270179;28;20056;-73
2023/03/06 11:22:35;;;;;;;47.95;15.60;;;15.30;41.30;;;;;;6269843;28;20079;-72
2023/03/06 11:25:49;;;;;;;43.70;14.50;;;15.50;41.20;;;;;;6270170;28;20120;-75
2023/03/06 11:29:07;;;;;;;43.30;15.18;;;15.80;41.40;;;;;;6271158;28;20346;-72
2023/03/06 11:32:15;;;;;;;38.67;15.50;;;16.10;39.90;;;;;;6269804;28;20036;-72
2023/03/06 11:35:22;;;;;;;39.05;15.68;;;16.40;39.60;;;;;;6270043;28;20164;-73
2023/03/06 11:38:40;;;;;;;39.25;15.32;;;16.80;39.10;;;;;;6270375;28;20115;-72
2023/03/06 11:41:48;;;;;;;40.60;14.13;;;17.10;37.80;;;;;;6252896;28;20029;-73
2023/03/06 11:45:24;;;;;;;39.92;14.63;;;17.30;37.40;;;;;;6270943;28;20080;-73
2023/03/06 11:48:53;;;;;;;45.55;15.40;;;17.60;37.20;;;;;;6282924;28;20572;-73
2023/03/06 11:52:03;;;;;;;38.50;13.88;;;18.00;36.60;;;;;;6295480;28;20032;-74
2023/03/06 11:55:07;;;;;;;40.05;13.88;;;18.40;35.80;;;;;;6294909;28;20521;-74
2023/03/06 11:58:41;;;;;;;34.08;13.85;;;18.80;35.10;;;;;;6293131;28;20028;-72
2023/03/06 12:02:10;;;;;;;41.83;14.73;;;19.20;34.10;;;;;;6293552;28;20110;-72
2023/03/06 12:05:32;;;;;;;36.50;15.05;;;19.60;33.60;;;;;;6294975;28;20025;-72
2023/03/06 12:08:43;;;;;;;29.80;12.75;;;20.10;32.90;;;;;;6294765;28;20035;-72
2023/03/06 12:12:03;;;;;;;43.47;14.98;;;20.70;31.70;;;;;;6282209;28;20379;-74
2023/03/06 12:15:04;;;;;;;40.45;15.82;;;21.10;30.60;;;;;;6272066;28;20025;-71
2023/03/06 12:18:29;;;;;;;42.75;15.80;;;21.30;29.80;;;;;;6280525;28;20029;-72
2023/03/06 12:21:53;;;;;;;33.25;13.48;;;21.80;29.70;;;;;;6289429;28;20060;-72
2023/03/06 12:25:03;;;;;;;48.08;14.82;;;22.20;29.20;;;;;;6259397;28;20123;-73
2023/03/06 12:28:13;;;;;;;33.55;13.20;;;22.70;28.60;;;;;;6290131;28;20466;-75
2023/03/06 12:31:34;;;;;;;26.08;10.50;;;23.00;26.90;;;;;;6291365;28;20358;-72
2023/03/06 12:34:38;;;;;;;31.88;14.23;;;23.00;26.90;;;;;;6273830;28;20028;-73
2023/03/06 12:38:09;;;;;;;46.15;14.40;;;23.00;26.50;;;;;;6256954;28;20116;-72
2023/03/06 12:41:36;;;;;;;23.25;8.73;;;23.10;26.40;;;;;;6274081;28;20125;-73
2023/03/06 12:44:54;;;;;;;26.85;10.25;;;23.00;25.80;;;;;;6216256;28;20049;-74
2023/03/06 12:47:56;;;;;;;23.70;8.80;;;23.00;25.60;;;;;;6199223;28;20128;-73
2023/03/06 12:50:58;;;;;;;21.85;8.02;;;23.10;25.60;;;;;;6216366;28;20038;-75
2023/03/06 12:54:00;;;;;;;22.92;9.20;;;23.50;25.60;;;;;;6199279;28;20041;-73
2023/03/06 12:57:02;;;;;;;31.23;9.38;;;23.70;24.90;;;;;;6215287;28;20061;-72
2023/03/06 13:00:03;;;;;;;22.10;9.40;;;23.20;24.90;;;;;;6215818;28;20033;-72
2023/03/06 13:03:18;;;;;;;27.08;10.45;;;22.60;25.70;;;;;;6192041;28;20046;-73
2023/03/06 13:06:53;;;;;;;27.65;9.95;;;22.50;25.90;;;;;;6174943;28;20030;-72
2023/03/06 13:10:15;;;;;;;23.58;8.80;;;22.60;25.80;;;;;;6174784;28;20042;-72
2023/03/06 13:13:32;;;;;;;24.80;9.98;;;22.60;25.20;;;;;;6191790;28;20038;-73
2023/03/06 13:16:34;;;;;;;26.83;10.10;;;22.30;25.30;;;;;;6175195;28;20086;-73
2023/03/06 13:19:35;;;;;;;24.33;8.93;;;21.60;25.90;;;;;;6191387;28;20038;-72
2023/03/06 13:22:36;;;;;;;22.58;8.30;;;20.70;26.40;;;;;;6270353;28;20055;-73
2023/03/06 13:25:47;;;;;;;17.50;7.95;;;20.00;27.10;;;;;;6292875;28;20379;-72
2023/03/06 13:28:49;;;;;;;19.50;8.55;;;19.30;27.80;;;;;;6292133;28;20086;-74
2023/03/06 13:31:53;;;;;;;24.08;8.48;;;18.80;28.30;;;;;;6290462;28;20032;-72
2023/03/06 13:34:54;;;;;;;24.98;8.32;;;18.50;28.80;;;;;;6292416;28;20032;-73
2023/03/06 13:37:56;;;;;;;22.58;8.00;;;18.20;29.00;;;;;;6290662;28;20342;-72
2023/03/06 13:41:19;;;;;;;21.95;9.00;;;18.00;29.20;;;;;;6290446;28;20036;-71
2023/03/06 13:44:23;;;;;;;18.27;7.38;;;17.90;29.20;;;;;;6291770;28;20031;-73
2023/03/06 13:47:36;;;;;;;19.20;7.82;;;17.60;29.20;;;;;;6291766;28;20428;-73
2023/03/06 13:50:47;;;;;;;23.42;6.65;;;17.40;29.50;;;;;;6292399;28;20033;-73
2023/03/06 13:54:23;;;;;;;23.02;7.55;;;17.20;29.60;;;;;;6310696;28;20046;-73
2023/03/06 13:57:39;;;;;;;16.70;6.55;;;17.10;29.70;;;;;;6315743;28;20198;-71
2023/03/06 14:00:49;;;;;;;17.48;6.43;;;17.00;29.90;;;;;;6316045;28;20031;-73
2023/03/06 14:04:06;;;;;;;28.67;7.85;;;17.00;30.00;;;;;;6305640;28;20342;-72
2023/03/06 14:07:19;;;;;;;22.30;8.00;;;16.90;29.90;;;;;;6290081;28;20178;-72
2023/03/06 14:10:23;;;;;;;22.63;7.88;;;16.90;30.00;;;;;;6291570;28;20036;-73
2023/03/06 14:13:31;;;;;;;17.63;6.70;;;16.90;30.10;;;;;;6273995;28;20033;-72
2023/03/06 14:16:39;;;;;;;14.55;6.20;;;16.80;30.00;;;;;;6292014;28;20021;-73
2023/03/06 14:19:41;;;;;;;22.38;6.72;;;16.70;30.00;;;;;;6291481;28;20064;-74
2023/03/06 14:22:42;;;;;;;25.13;6.47;;;16.70;30.10;;;;;;6293158;28;20032;-73
2023/03/06 14:25:45;;;;;;;20.70;6.65;;;16.70;30.00;;;;;;6291728;28;20465;-73
2023/03/06 14:28:54;;;;;;;15.10;5.63;;;16.60;30.00;;;;;;6291278;28;20113;-74
2023/03/06 14:31:59;;;;;;;18.75;6.03;;;16.60;30.00;;;;;;6291886;28;20056;-72
2023/03/06 14:35:00;;;;;;;18.90;5.93;;;16.60;30.00;;;;;;6289940;28;20092;-73
2023/03/06 14:38:05;;;;;;;16.02;6.22;;;16.50;29.90;;;;;;6289946;28;20040;-74
2023/03/06 14:41:06;;;;;;;16.55;5.32;;;16.50;29.90;;;;;;6274562;28;20024;-72
2023/03/06 14:44:20;;;;;;;20.88;6.25;;;16.40;29.90;;;;;;6296220;28;20403;-72
2023/03/06 14:47:27;;;;;;;23.67;6.90;;;16.40;30.00;;;;;;6314727;28;20044;-72
2023/03/06 14:50:32;;;;;;;20.80;5.97;;;16.30;30.00;;;;;;6315432;28;20068;-72
2023/03/06 14:53:34;;;;;;;19.48;6.72;;;16.30;30.00;;;;;;6282495;28;20020;-73
2023/03/06 14:56:41;;;;;;;20.65;6.53;;;16.30;30.10;;;;;;6296534;28;20122;-72
2023/03/06 14:59:55;;;;;;;18.52;6.30;;;16.20;30.20;;;;;;6289170;28;20448;-73
2023/03/06 15:02:57;;;;;;;17.95;5.63;;;16.20;30.20;;;;;;6270174;28;20043;-72
2023/03/06 15:05:58;;;;;;;19.17;6.70;;;16.30;30.40;;;;;;6271215;28;20032;-72
2023/03/06 15:09:02;;;;;;;22.52;6.28;;;16.10;30.50;;;;;;6271040;28;20029;-73
2023/03/06 15:12:07;;;;;;;16.70;5.30;;;16.10;30.70;;;;;;6270038;28;20080;-72
2023/03/06 15:15:09;;;;;;;28.95;6.80;;;16.10;30.80;;;;;;6269433;28;20122;-72
2023/03/06 15:18:50;;;;;;;18.88;5.90;;;16.10;30.80;;;;;;6270371;28;20040;-71
2023/03/06 15:21:51;;;;;;;17.52;6.03;;;16.00;30.80;;;;;;6270218;28;20025;-72
2023/03/06 15:24:53;;;;;;;17.50;5.63;;;16.00;31.00;;;;;;6252715;28;20192;-71
2023/03/06 15:28:14;;;;;;;26.27;6.72;;;16.00;31.00;;;;;;6268869;28;20182;-72
2023/03/06 15:31:26;;;;;;;18.52;6.53;;;16.00;31.10;;;;;;6270346;28;20040;-73
2023/03/06 15:34:27;;;;;;;21.10;6.63;;;16.00;31.10;;;;;;6268934;28;20108;-72
2023/03/06 15:37:28;;;;;;;16.35;5.97;;;16.00;31.20;;;;;;6270174;28;20369;-72
2023/03/06 15:40:30;;;;;;;18.05;6.10;;;15.90;31.20;;;;;;6268432;28;20025;-73
2023/03/06 15:43:36;;;;;;;23.08;6.78;;;15.90;31.30;;;;;;6269120;28;20104;-72
2023/03/06 15:46:38;;;;;;;24.70;6.30;;;15.90;31.40;;;;;;6290867;28;20040;-71
2023/03/06 15:49:39;;;;;;;20.02;6.38;;;15.80;31.60;;;;;;6295175;28;20429;-73